createdAt,value
2023-05-29T00:00:24.717Z,68.35
2023-05-29T00:01:25.757Z,68.18
2023-05-29T00:02:24.865Z,68.18
2023-05-29T00:03:24.803Z,68.07
2023-05-29T00:04:24.853Z,68.38
2023-05-29T00:05:24.653Z,68.58
2023-05-29T00:06:24.648Z,68.58
2023-05-29T00:07:24.618Z,68.99
2023-05-29T00:08:24.661Z,68.99
2023-05-29T00:09:24.620Z,68.99
2023-05-29T00:10:24.622Z,68.88
2023-05-29T00:11:24.607Z,68.88
2023-05-29T00:12:24.727Z,69.09
2023-05-29T00:13:25.170Z,69.29
2023-05-29T00:14:24.554Z,69.49
2023-05-29T00:15:24.629Z,69.70
2023-05-29T00:16:24.588Z,69.80
2023-05-29T00:17:24.545Z,69.80
2023-05-29T00:18:24.500Z,69.60
2023-05-29T00:19:24.502Z,69.40
2023-05-29T00:20:24.529Z,69.19
2023-05-29T00:21:24.456Z,69.40
2023-05-29T00:22:24.522Z,69.90
2023-05-29T00:23:24.444Z,69.60
2023-05-29T00:24:24.448Z,70.14
2023-05-29T00:25:24.447Z,70.34
2023-05-29T00:26:24.425Z,70.04
2023-05-29T00:27:24.405Z,69.84
2023-05-29T00:28:24.422Z,70.14
2023-05-29T00:29:24.416Z,70.14
2023-05-29T00:30:25.023Z,70.04
2023-05-29T00:31:24.415Z,70.14
2023-05-29T00:32:24.442Z,70.24
2023-05-29T00:33:24.337Z,70.24
2023-05-29T00:34:24.326Z,70.65
2023-05-29T00:35:24.370Z,70.55
2023-05-29T00:36:24.318Z,70.45
2023-05-29T00:37:24.408Z,70.24
2023-05-29T00:38:24.392Z,70.45
2023-05-29T00:39:24.273Z,70.75
2023-05-29T00:40:24.287Z,71.06
2023-05-29T00:41:24.291Z,71.06
2023-05-29T00:42:24.251Z,71.16
2023-05-29T00:43:24.221Z,71.16
2023-05-29T00:44:24.238Z,71.16
2023-05-29T00:45:24.253Z,71.97
2023-05-29T00:46:24.307Z,71.67
2023-05-29T00:47:24.205Z,71.77
2023-05-29T00:48:24.176Z,71.77
2023-05-29T00:49:24.153Z,71.97
2023-05-29T00:50:24.311Z,72.17
2023-05-29T00:51:24.214Z,71.36
2023-05-29T00:52:24.132Z,71.77
2023-05-29T00:53:24.105Z,71.67
2023-05-29T00:54:24.100Z,71.77
2023-05-29T00:55:24.102Z,72.28
2023-05-29T00:56:24.234Z,72.08
2023-05-29T00:57:24.129Z,72.28
2023-05-29T00:58:24.093Z,72.11
2023-05-29T00:59:24.966Z,72.31
2023-05-29T01:00:24.043Z,72.52
2023-05-29T01:01:24.108Z,72.72
2023-05-29T01:02:25.036Z,73.13
2023-05-29T01:03:24.337Z,72.92
2023-05-29T01:04:23.993Z,73.02
2023-05-29T01:05:23.995Z,72.11
2023-05-29T01:06:23.980Z,71.91
2023-05-29T01:07:24.926Z,71.91
2023-05-29T01:08:23.994Z,72.01
2023-05-29T01:09:24.089Z,71.70
2023-05-29T01:10:24.189Z,72.01
2023-05-29T01:11:24.595Z,72.21
2023-05-29T01:12:24.010Z,72.52
2023-05-29T01:13:23.875Z,72.62
2023-05-29T01:14:24.636Z,72.62
2023-05-29T01:15:23.868Z,72.62
2023-05-29T01:16:23.988Z,72.52
2023-05-29T01:17:23.862Z,72.62
2023-05-29T01:18:23.898Z,72.72
2023-05-29T01:19:23.840Z,72.62
2023-05-29T01:20:23.966Z,72.55
2023-05-29T01:21:23.832Z,72.86
2023-05-29T01:22:23.817Z,72.65
2023-05-29T01:23:24.173Z,72.55
2023-05-29T01:24:23.772Z,72.75
2023-05-29T01:25:24.656Z,72.65
2023-05-29T01:26:23.730Z,72.86
2023-05-29T01:27:23.762Z,72.96
2023-05-29T01:28:23.755Z,72.96
2023-05-29T01:29:23.740Z,72.96
2023-05-29T01:30:23.684Z,73.26
2023-05-29T01:31:23.702Z,73.57
2023-05-29T01:32:23.861Z,73.67
2023-05-29T01:33:23.665Z,73.67
2023-05-29T01:34:23.685Z,73.57
2023-05-29T01:35:23.668Z,74.01
2023-05-29T01:36:23.673Z,74.11
2023-05-29T01:37:23.659Z,74.42
2023-05-29T01:38:23.605Z,74.32
2023-05-29T01:39:24.137Z,74.62
2023-05-29T01:40:23.596Z,74.42
2023-05-29T01:41:23.633Z,74.62
2023-05-29T01:42:23.581Z,74.93
2023-05-29T01:43:23.551Z,75.23
2023-05-29T01:44:23.553Z,75.54
2023-05-29T01:45:23.572Z,75.64
2023-05-29T01:46:23.554Z,75.64
2023-05-29T01:47:23.543Z,75.54
2023-05-29T01:48:23.484Z,75.44
2023-05-29T01:49:23.519Z,75.54
2023-05-29T01:50:23.461Z,76.05
2023-05-29T01:51:23.469Z,76.25
2023-05-29T01:52:23.479Z,76.56
2023-05-29T01:53:24.123Z,76.46
2023-05-29T01:54:23.443Z,76.56
2023-05-29T01:55:23.421Z,76.39
2023-05-29T01:56:23.420Z,76.39
2023-05-29T01:57:23.417Z,76.39
2023-05-29T01:58:23.439Z,76.50
2023-05-29T01:59:23.419Z,76.29
2023-05-29T02:00:23.349Z,76.50
2023-05-29T02:01:23.389Z,76.59
2023-05-29T02:02:23.508Z,76.90
2023-05-29T02:03:23.314Z,76.80
2023-05-29T02:04:23.381Z,77.00
2023-05-29T02:05:23.331Z,76.90
2023-05-29T02:06:23.297Z,77.41
2023-05-29T02:07:23.352Z,77.72
2023-05-29T02:08:24.162Z,77.72
2023-05-29T02:09:23.254Z,77.65
2023-05-29T02:10:23.268Z,77.86
2023-05-29T02:11:23.291Z,78.16
2023-05-29T02:12:23.217Z,78.16
2023-05-29T02:13:23.233Z,78.16
2023-05-29T02:14:23.212Z,78.16
2023-05-29T02:15:23.198Z,78.06
2023-05-29T02:16:23.412Z,78.16
2023-05-29T02:17:23.223Z,78.16
2023-05-29T02:18:23.185Z,78.16
2023-05-29T02:19:23.143Z,78.06
2023-05-29T02:20:23.178Z,78.16
2023-05-29T02:21:23.134Z,78.16
2023-05-29T02:22:23.128Z,78.57
2023-05-29T02:23:23.102Z,78.67
2023-05-29T02:24:23.092Z,78.57
2023-05-29T02:25:23.107Z,77.96
2023-05-29T02:26:23.068Z,77.34
2023-05-29T02:27:23.052Z,77.25
2023-05-29T02:28:23.036Z,77.25
2023-05-29T02:29:23.126Z,77.11
2023-05-29T02:30:23.040Z,76.80
2023-05-29T02:31:23.008Z,76.39
2023-05-29T02:32:23.116Z,76.59
2023-05-29T02:33:23.022Z,76.70
2023-05-29T02:34:23.945Z,76.90
2023-05-29T02:35:23.021Z,76.80
2023-05-29T02:36:22.955Z,76.90
2023-05-29T02:37:22.955Z,77.25
2023-05-29T02:38:22.942Z,77.34
2023-05-29T02:39:22.929Z,77.14
2023-05-29T02:40:22.911Z,77.25
2023-05-29T02:41:22.894Z,77.65
2023-05-29T02:42:22.894Z,78.06
2023-05-29T02:43:22.878Z,78.16
2023-05-29T02:44:22.914Z,77.75
2023-05-29T02:45:22.927Z,77.65
2023-05-29T02:46:22.988Z,77.86
2023-05-29T02:47:22.832Z,78.20
2023-05-29T02:48:22.814Z,78.61
2023-05-29T02:49:22.856Z,78.91
2023-05-29T02:50:22.799Z,78.81
2023-05-29T02:51:22.814Z,79.02
2023-05-29T02:52:22.772Z,79.02
2023-05-29T02:53:22.770Z,78.64
2023-05-29T02:54:22.786Z,78.64
2023-05-29T02:55:22.779Z,78.95
2023-05-29T02:56:22.782Z,78.95
2023-05-29T02:57:22.752Z,79.05
2023-05-29T02:58:22.743Z,79.16
2023-05-29T02:59:22.690Z,78.95
2023-05-29T03:00:22.757Z,79.02
2023-05-29T03:01:22.763Z,78.91
2023-05-29T03:02:22.714Z,78.91
2023-05-29T03:03:22.775Z,78.95
2023-05-29T03:04:22.627Z,78.95
2023-05-29T03:05:22.652Z,79.05
2023-05-29T03:06:22.600Z,79.05
2023-05-29T03:07:22.631Z,79.05
2023-05-29T03:08:22.602Z,79.16
2023-05-29T03:09:22.594Z,79.25
2023-05-29T03:10:22.598Z,79.16
2023-05-29T03:11:22.549Z,79.05
2023-05-29T03:12:22.616Z,79.05
2023-05-29T03:13:22.626Z,79.05
2023-05-29T03:14:22.554Z,79.05
2023-05-29T03:15:22.509Z,78.95
2023-05-29T03:16:22.525Z,78.95
2023-05-29T03:17:22.497Z,78.85
2023-05-29T03:18:22.468Z,78.88
2023-05-29T03:19:22.529Z,78.88
2023-05-29T03:20:22.476Z,78.78
2023-05-29T03:21:22.611Z,79.09
2023-05-29T03:22:22.450Z,79.09
2023-05-29T03:23:22.454Z,79.09
2023-05-29T03:24:23.070Z,79.19
2023-05-29T03:25:22.412Z,79.19
2023-05-29T03:26:22.524Z,79.09
2023-05-29T03:27:22.401Z,78.99
2023-05-29T03:28:22.451Z,78.78
2023-05-29T03:29:22.386Z,78.78
2023-05-29T03:30:22.353Z,78.78
2023-05-29T03:31:22.410Z,78.78
2023-05-29T03:32:22.330Z,78.68
2023-05-29T03:33:22.397Z,78.68
2023-05-29T03:34:22.295Z,78.68
2023-05-29T03:35:22.298Z,78.68
2023-05-29T03:36:22.371Z,78.99
2023-05-29T03:37:22.311Z,78.88
2023-05-29T03:38:22.372Z,78.88
2023-05-29T03:39:22.461Z,78.88
2023-05-29T03:40:22.234Z,78.78
2023-05-29T03:41:22.357Z,78.88
2023-05-29T03:42:22.203Z,78.88
2023-05-29T03:43:22.221Z,78.88
2023-05-29T03:44:22.213Z,78.88
2023-05-29T03:45:22.186Z,78.78
2023-05-29T03:46:22.353Z,78.88
2023-05-29T03:47:22.194Z,78.68
2023-05-29T03:48:22.145Z,78.88
2023-05-29T03:49:22.139Z,78.78
2023-05-29T03:50:22.141Z,78.78
2023-05-29T03:51:22.234Z,78.78
2023-05-29T03:52:22.105Z,79.09
2023-05-29T03:53:22.966Z,79.39
2023-05-29T03:54:22.086Z,79.29
2023-05-29T03:55:22.121Z,79.43
2023-05-29T03:56:22.070Z,79.64
2023-05-29T03:57:22.049Z,79.74
2023-05-29T03:58:22.057Z,79.74
2023-05-29T03:59:22.035Z,79.74
2023-05-29T04:00:22.000Z,79.84
2023-05-29T04:01:21.999Z,79.74
2023-05-29T04:02:22.113Z,79.74
2023-05-29T04:03:22.094Z,79.53
2023-05-29T04:04:22.070Z,79.53
2023-05-29T04:05:21.961Z,79.33
2023-05-29T04:06:21.975Z,79.33
2023-05-29T04:07:21.936Z,79.43
2023-05-29T04:08:21.965Z,79.33
2023-05-29T04:09:21.931Z,79.19
2023-05-29T04:10:21.929Z,78.99
2023-05-29T04:11:21.938Z,78.88
2023-05-29T04:12:21.879Z,78.88
2023-05-29T04:13:21.931Z,78.78
2023-05-29T04:14:21.894Z,78.99
2023-05-29T04:15:21.890Z,78.88
2023-05-29T04:16:21.871Z,78.99
2023-05-29T04:17:21.854Z,78.68
2023-05-29T04:18:21.895Z,78.78
2023-05-29T04:19:22.218Z,78.68
2023-05-29T04:20:21.810Z,78.68
2023-05-29T04:21:21.773Z,78.78
2023-05-29T04:22:21.774Z,78.78
2023-05-29T04:23:21.760Z,78.99
2023-05-29T04:24:21.764Z,78.99
2023-05-29T04:25:22.665Z,78.88
2023-05-29T04:26:21.724Z,78.88
2023-05-29T04:27:21.732Z,78.99
2023-05-29T04:28:22.093Z,78.99
2023-05-29T04:29:21.720Z,78.88
2023-05-29T04:30:21.742Z,78.99
2023-05-29T04:31:21.671Z,78.88
2023-05-29T04:32:21.650Z,78.99
2023-05-29T04:33:21.658Z,78.88
2023-05-29T04:34:22.450Z,78.64
2023-05-29T04:35:21.629Z,78.64
2023-05-29T04:36:21.624Z,78.54
2023-05-29T04:37:21.609Z,78.54
2023-05-29T04:38:21.597Z,78.34
2023-05-29T04:39:21.577Z,77.93
2023-05-29T04:40:21.582Z,77.83
2023-05-29T04:41:21.583Z,77.93
2023-05-29T04:42:21.623Z,77.72
2023-05-29T04:43:21.550Z,77.48
2023-05-29T04:44:21.565Z,77.38
2023-05-29T04:45:21.561Z,77.18
2023-05-29T04:46:21.570Z,76.97
2023-05-29T04:47:21.497Z,76.97
2023-05-29T04:48:21.462Z,76.97
2023-05-29T04:49:21.551Z,76.77
2023-05-29T04:50:21.456Z,76.56
2023-05-29T04:51:22.477Z,76.53
2023-05-29T04:52:21.438Z,76.43
2023-05-29T04:53:21.450Z,76.53
2023-05-29T04:54:21.418Z,76.22
2023-05-29T04:55:21.476Z,76.02
2023-05-29T04:56:21.395Z,76.02
2023-05-29T04:57:21.688Z,75.92
2023-05-29T04:58:21.447Z,76.02
2023-05-29T04:59:21.345Z,76.22
2023-05-29T05:00:21.429Z,76.22
2023-05-29T05:01:21.415Z,76.09
2023-05-29T05:02:21.314Z,75.98
2023-05-29T05:03:21.312Z,75.98
2023-05-29T05:04:21.390Z,75.98
2023-05-29T05:05:21.428Z,75.78
2023-05-29T05:06:21.308Z,75.68
2023-05-29T05:07:21.290Z,75.68
2023-05-29T05:08:21.253Z,75.37
2023-05-29T05:09:21.262Z,75.37
2023-05-29T05:10:21.235Z,75.54
2023-05-29T05:11:21.231Z,75.44
2023-05-29T05:12:21.248Z,75.23
2023-05-29T05:13:21.419Z,75.03
2023-05-29T05:14:21.172Z,75.03
2023-05-29T05:15:21.202Z,75.23
2023-05-29T05:16:21.206Z,75.23
2023-05-29T05:17:21.180Z,74.62
2023-05-29T05:18:21.230Z,74.49
2023-05-29T05:19:21.178Z,74.58
2023-05-29T05:20:21.198Z,74.79
2023-05-29T05:21:21.106Z,74.90
2023-05-29T05:22:21.111Z,74.69
2023-05-29T05:23:21.113Z,74.58
2023-05-29T05:24:21.110Z,74.35
2023-05-29T05:25:21.136Z,74.04
2023-05-29T05:26:21.049Z,73.94
2023-05-29T05:27:21.055Z,74.04
2023-05-29T05:28:21.034Z,74.15
2023-05-29T05:29:21.175Z,73.94
2023-05-29T05:30:21.020Z,73.71
2023-05-29T05:31:21.059Z,73.80
2023-05-29T05:32:21.049Z,73.50
2023-05-29T05:33:21.124Z,73.30
2023-05-29T05:34:20.986Z,73.40
2023-05-29T05:35:20.978Z,73.47
2023-05-29T05:36:20.956Z,73.77
2023-05-29T05:37:20.919Z,73.77
2023-05-29T05:38:21.078Z,73.57
2023-05-29T05:39:21.120Z,73.23
2023-05-29T05:40:20.970Z,73.23
2023-05-29T05:41:20.971Z,73.13
2023-05-29T05:42:20.868Z,72.82
2023-05-29T05:43:20.868Z,72.92
2023-05-29T05:44:20.922Z,73.30
2023-05-29T05:45:20.869Z,73.30
2023-05-29T05:46:20.840Z,73.50
2023-05-29T05:47:20.833Z,72.58
2023-05-29T05:48:20.807Z,72.17
2023-05-29T05:49:20.822Z,72.25
2023-05-29T05:50:20.786Z,71.84
2023-05-29T05:51:21.742Z,71.73
2023-05-29T05:52:20.766Z,72.21
2023-05-29T05:53:21.321Z,71.40
2023-05-29T05:54:20.773Z,71.50
2023-05-29T05:55:20.724Z,71.91
2023-05-29T05:56:20.709Z,71.97
2023-05-29T05:57:20.702Z,71.97
2023-05-29T05:58:20.693Z,71.88
2023-05-29T05:59:20.744Z,71.77
2023-05-29T06:00:20.672Z,71.13
2023-05-29T06:01:20.677Z,71.03
2023-05-29T06:02:20.795Z,71.53
2023-05-29T06:03:20.763Z,70.62
2023-05-29T06:04:20.696Z,70.11
2023-05-29T06:05:20.628Z,69.98
2023-05-29T06:06:20.599Z,69.57
2023-05-29T06:07:20.628Z,68.96
2023-05-29T06:08:20.579Z,68.52
2023-05-29T06:09:22.434Z,68.49
2023-05-29T06:10:20.599Z,67.11
2023-05-29T06:11:20.579Z,66.75
2023-05-29T06:12:20.580Z,65.20
2023-05-29T06:13:20.517Z,64.26
2023-05-29T06:14:20.591Z,64.16
2023-05-29T06:15:20.514Z,63.38
2023-05-29T06:16:21.155Z,63.28
2023-05-29T06:17:23.245Z,63.58
2023-05-29T06:18:20.471Z,63.38
2023-05-29T06:19:20.449Z,63.89
2023-05-29T06:20:20.506Z,64.49
2023-05-29T06:21:20.488Z,64.12
2023-05-29T06:22:20.418Z,64.22
2023-05-29T06:23:20.488Z,64.93
2023-05-29T06:24:20.436Z,64.70
2023-05-29T06:25:20.415Z,64.29
2023-05-29T06:26:20.693Z,64.02
2023-05-29T06:27:20.352Z,64.62
2023-05-29T06:28:20.353Z,64.79
2023-05-29T06:29:20.350Z,64.49
2023-05-29T06:30:21.735Z,64.39
2023-05-29T06:31:20.426Z,64.49
2023-05-29T06:32:20.359Z,64.19
2023-05-29T06:33:20.323Z,63.78
2023-05-29T06:34:20.314Z,63.48
2023-05-29T06:35:20.314Z,64.39
2023-05-29T06:36:20.308Z,63.89
2023-05-29T06:37:20.252Z,63.68
2023-05-29T06:38:20.264Z,63.99
2023-05-29T06:39:20.290Z,63.96
2023-05-29T06:40:20.229Z,62.74
2023-05-29T06:41:21.189Z,62.14
2023-05-29T06:42:20.190Z,62.85
2023-05-29T06:43:20.178Z,63.15
2023-05-29T06:44:21.120Z,63.55
2023-05-29T06:45:20.192Z,63.45
2023-05-29T06:46:20.196Z,62.64
2023-05-29T06:47:20.304Z,62.82
2023-05-29T06:48:20.146Z,63.02
2023-05-29T06:49:20.125Z,62.31
2023-05-29T06:50:20.209Z,62.31
2023-05-29T06:51:20.097Z,62.01
2023-05-29T06:52:20.857Z,61.20
2023-05-29T06:53:20.072Z,61.00
2023-05-29T06:54:20.059Z,62.31
2023-05-29T06:55:20.117Z,62.21
2023-05-29T06:56:20.050Z,62.11
2023-05-29T06:57:20.028Z,62.38
2023-05-29T06:58:20.036Z,62.18
2023-05-29T06:59:20.163Z,61.88
2023-05-29T07:00:20.014Z,61.88
2023-05-29T07:01:20.018Z,61.57
2023-05-29T07:02:20.156Z,61.68
2023-05-29T07:03:20.235Z,61.77
2023-05-29T07:04:20.605Z,61.77
2023-05-29T07:05:19.974Z,61.68
2023-05-29T07:06:20.604Z,61.17
2023-05-29T07:07:19.912Z,60.87
2023-05-29T07:08:19.976Z,61.07
2023-05-29T07:09:19.967Z,61.14
2023-05-29T07:10:20.116Z,60.64
2023-05-29T07:11:19.875Z,60.94
2023-05-29T07:12:19.930Z,60.53
2023-05-29T07:13:19.854Z,60.64
2023-05-29T07:14:20.600Z,60.94
2023-05-29T07:15:19.901Z,60.94
2023-05-29T07:16:25.015Z,60.84
2023-05-29T07:17:20.602Z,61.14
2023-05-29T07:18:19.837Z,60.84
2023-05-29T07:19:21.606Z,60.71
2023-05-29T07:20:19.853Z,60.71
2023-05-29T07:21:19.764Z,60.91
2023-05-29T07:22:19.745Z,61.21
2023-05-29T07:23:19.734Z,61.41
2023-05-29T07:24:19.801Z,61.72
2023-05-29T07:25:19.865Z,61.41
2023-05-29T07:26:20.675Z,60.81
2023-05-29T07:27:19.766Z,61.92
2023-05-29T07:28:22.611Z,61.82
2023-05-29T07:29:19.694Z,61.92
2023-05-29T07:30:19.684Z,62.12
2023-05-29T07:31:19.691Z,62.55
2023-05-29T07:32:19.700Z,63.06
2023-05-29T07:33:20.592Z,61.44
2023-05-29T07:34:19.642Z,62.55
2023-05-29T07:35:19.635Z,62.15
2023-05-29T07:36:19.610Z,62.43
2023-05-29T07:37:19.601Z,62.43
2023-05-29T07:38:19.619Z,62.73
2023-05-29T07:39:19.548Z,62.83
2023-05-29T07:40:19.548Z,62.93
2023-05-29T07:41:19.546Z,61.69
2023-05-29T07:42:19.590Z,61.61
2023-05-29T07:43:19.567Z,61.21
2023-05-29T07:44:19.519Z,61.39
2023-05-29T07:45:19.520Z,61.18
2023-05-29T07:46:20.508Z,60.98
2023-05-29T07:47:19.471Z,60.78
2023-05-29T07:48:21.631Z,61.29
2023-05-29T07:49:20.127Z,60.78
2023-05-29T07:50:19.464Z,60.98
2023-05-29T07:51:20.147Z,61.39
2023-05-29T07:52:19.420Z,61.49
2023-05-29T07:53:19.425Z,61.69
2023-05-29T07:54:19.491Z,61.49
2023-05-29T07:55:19.490Z,61.46
2023-05-29T07:56:19.399Z,61.66
2023-05-29T07:57:19.421Z,61.25
2023-05-29T07:58:19.526Z,61.13
2023-05-29T07:59:19.341Z,61.03
2023-05-29T08:00:19.325Z,61.03
2023-05-29T08:01:19.377Z,60.72
2023-05-29T08:02:19.369Z,60.42
2023-05-29T08:03:19.366Z,59.82
2023-05-29T08:04:19.317Z,59.92
2023-05-29T08:05:19.363Z,60.12
2023-05-29T08:06:19.397Z,60.32
2023-05-29T08:07:19.264Z,60.12
2023-05-29T08:08:20.153Z,59.82
2023-05-29T08:09:19.263Z,59.52
2023-05-29T08:10:19.245Z,59.39
2023-05-29T08:11:19.227Z,58.58
2023-05-29T08:12:19.244Z,58.98
2023-05-29T08:13:19.175Z,59.19
2023-05-29T08:14:19.189Z,59.39
2023-05-29T08:15:19.174Z,59.28
2023-05-29T08:16:19.254Z,59.69
2023-05-29T08:17:19.135Z,60.02
2023-05-29T08:18:19.130Z,59.89
2023-05-29T08:19:19.134Z,59.89
2023-05-29T08:20:19.160Z,60.19
2023-05-29T08:21:19.241Z,60.16
2023-05-29T08:22:19.159Z,59.46
2023-05-29T08:23:19.078Z,59.06
2023-05-29T08:24:19.139Z,57.82
2023-05-29T08:25:19.064Z,58.02
2023-05-29T08:26:19.189Z,58.22
2023-05-29T08:27:19.071Z,58.53
2023-05-29T08:28:19.078Z,58.53
2023-05-29T08:29:19.153Z,58.73
2023-05-29T08:30:19.071Z,58.40
2023-05-29T08:31:19.308Z,58.60
2023-05-29T08:32:19.059Z,58.70
2023-05-29T08:33:19.184Z,58.50
2023-05-29T08:34:19.042Z,58.60
2023-05-29T08:35:18.987Z,59.03
2023-05-29T08:36:19.098Z,59.13
2023-05-29T08:37:18.983Z,59.94
2023-05-29T08:38:18.959Z,59.33
2023-05-29T08:39:18.981Z,58.73
2023-05-29T08:40:18.982Z,58.12
2023-05-29T08:41:18.862Z,58.42
2023-05-29T08:42:18.967Z,58.53
2023-05-29T08:43:18.843Z,59.00
2023-05-29T08:44:18.849Z,58.29
2023-05-29T08:45:18.866Z,58.90
2023-05-29T08:46:18.909Z,58.40
2023-05-29T08:47:18.811Z,58.00
2023-05-29T08:48:18.852Z,58.29
2023-05-29T08:49:18.810Z,58.07
2023-05-29T08:50:18.798Z,57.26
2023-05-29T08:51:18.833Z,57.46
2023-05-29T08:52:18.808Z,57.34
2023-05-29T08:53:18.745Z,57.04
2023-05-29T08:54:18.737Z,57.24
2023-05-29T08:55:18.727Z,57.14
2023-05-29T08:56:33.238Z,57.14
2023-05-29T08:57:18.715Z,57.54
2023-05-29T08:58:18.749Z,57.34
2023-05-29T08:59:18.714Z,57.04
2023-05-29T09:00:18.704Z,56.74
2023-05-29T09:01:18.667Z,57.14
2023-05-29T09:02:18.735Z,56.74
2023-05-29T09:03:19.076Z,56.74
2023-05-29T09:04:18.885Z,57.11
2023-05-29T09:05:18.609Z,56.51
2023-05-29T09:06:18.590Z,56.21
2023-05-29T09:07:18.576Z,56.30
2023-05-29T09:08:18.570Z,56.41
2023-05-29T09:09:18.595Z,56.51
2023-05-29T09:10:18.548Z,56.30
2023-05-29T09:11:18.556Z,55.18
2023-05-29T09:12:18.523Z,55.08
2023-05-29T09:13:18.585Z,55.18
2023-05-29T09:14:18.566Z,55.18
2023-05-29T09:15:18.528Z,55.38
2023-05-29T09:16:18.607Z,55.55
2023-05-29T09:17:18.463Z,54.95
2023-05-29T09:18:18.474Z,55.15
2023-05-29T09:19:18.467Z,55.28
2023-05-29T09:20:18.529Z,55.18
2023-05-29T09:21:18.414Z,54.97
2023-05-29T09:22:18.408Z,55.05
2023-05-29T09:23:18.400Z,54.75
2023-05-29T09:24:18.421Z,55.45
2023-05-29T09:25:18.436Z,55.35
2023-05-29T09:26:18.385Z,54.35
2023-05-29T09:27:18.384Z,53.85
2023-05-29T09:28:20.191Z,53.55
2023-05-29T09:29:18.380Z,53.75
2023-05-29T09:30:18.326Z,53.85
2023-05-29T09:31:18.529Z,53.64
2023-05-29T09:32:18.393Z,53.85
2023-05-29T09:33:18.657Z,54.05
2023-05-29T09:34:18.308Z,54.43
2023-05-29T09:35:18.260Z,55.02
2023-05-29T09:36:18.282Z,54.43
2023-05-29T09:37:18.519Z,54.12
2023-05-29T09:38:32.890Z,53.52
2023-05-29T09:39:18.491Z,53.82
2023-05-29T09:40:18.214Z,53.62
2023-05-29T09:41:18.218Z,53.52
2023-05-29T09:42:18.263Z,53.42
2023-05-29T09:43:18.250Z,52.92
2023-05-29T09:44:18.996Z,53.42
2023-05-29T09:45:18.199Z,53.19
2023-05-29T09:46:18.160Z,53.09
2023-05-29T09:47:18.408Z,53.30
2023-05-29T09:48:18.164Z,53.30
2023-05-29T09:49:18.114Z,53.07
2023-05-29T09:50:18.092Z,52.57
2023-05-29T09:51:18.111Z,51.97
2023-05-29T09:52:18.082Z,51.17
2023-05-29T09:53:18.143Z,51.37
2023-05-29T09:54:18.174Z,50.94
2023-05-29T09:55:18.053Z,50.74
2023-05-29T09:56:18.058Z,51.04
2023-05-29T09:57:18.061Z,50.64
2023-05-29T09:58:18.084Z,50.34
2023-05-29T09:59:19.198Z,50.84
2023-05-29T10:00:18.136Z,49.94
2023-05-29T10:01:18.022Z,49.34
2023-05-29T10:02:18.058Z,49.44
2023-05-29T10:03:18.215Z,50.04
2023-05-29T10:04:17.987Z,48.94
2023-05-29T10:05:18.301Z,49.44
2023-05-29T10:06:17.923Z,48.54
2023-05-29T10:07:17.918Z,48.44
2023-05-29T10:08:17.917Z,48.44
2023-05-29T10:09:17.985Z,49.34
2023-05-29T10:10:17.976Z,49.04
2023-05-29T10:11:17.875Z,47.84
2023-05-29T10:12:17.900Z,47.14
2023-05-29T10:13:17.868Z,44.71
2023-05-29T10:14:17.872Z,44.84
2023-05-29T10:15:17.854Z,45.74
2023-05-29T10:16:18.199Z,46.12
2023-05-29T10:17:17.817Z,45.84
2023-05-29T10:18:17.791Z,46.54
2023-05-29T10:19:17.796Z,46.34
2023-05-29T10:20:17.922Z,45.84
2023-05-29T10:21:17.830Z,45.86
2023-05-29T10:22:17.804Z,45.46
2023-05-29T10:23:17.735Z,46.06
2023-05-29T10:24:17.738Z,46.46
2023-05-29T10:25:17.817Z,46.44
2023-05-29T10:26:17.726Z,46.94
2023-05-29T10:27:18.659Z,47.34
2023-05-29T10:28:18.673Z,47.44
2023-05-29T10:29:17.699Z,47.44
2023-05-29T10:30:17.738Z,47.81
2023-05-29T10:31:17.696Z,47.81
2023-05-29T10:32:17.675Z,46.89
2023-05-29T10:33:17.711Z,47.30
2023-05-29T10:34:17.634Z,47.19
2023-05-29T10:35:17.655Z,46.89
2023-05-29T10:36:17.596Z,46.99
2023-05-29T10:37:18.537Z,46.99
2023-05-29T10:38:17.616Z,47.19
2023-05-29T10:39:17.585Z,47.49
2023-05-29T10:40:17.683Z,47.30
2023-05-29T10:41:18.225Z,47.19
2023-05-29T10:42:17.527Z,47.69
2023-05-29T10:43:18.515Z,46.89
2023-05-29T10:44:17.564Z,46.22
2023-05-29T10:45:17.499Z,46.92
2023-05-29T10:46:17.559Z,47.42
2023-05-29T10:47:17.467Z,47.81
2023-05-29T10:48:17.455Z,47.61
2023-05-29T10:49:17.467Z,47.39
2023-05-29T10:50:17.468Z,46.99
2023-05-29T10:51:17.449Z,46.69
2023-05-29T10:52:17.503Z,46.59
2023-05-29T10:53:17.406Z,46.69
2023-05-29T10:54:17.417Z,47.30
2023-05-29T10:55:17.395Z,47.09
2023-05-29T10:56:17.467Z,46.59
2023-05-29T10:57:17.426Z,46.27
2023-05-29T10:58:17.404Z,45.37
2023-05-29T10:59:17.412Z,46.39
2023-05-29T11:00:18.444Z,45.39
2023-05-29T11:01:17.331Z,45.69
2023-05-29T11:02:17.394Z,45.97
2023-05-29T11:03:17.365Z,45.97
2023-05-29T11:04:17.292Z,46.07
2023-05-29T11:05:19.030Z,46.07
2023-05-29T11:06:17.276Z,44.97
2023-05-29T11:07:17.280Z,45.87
2023-05-29T11:08:17.704Z,45.97
2023-05-29T11:09:17.700Z,46.25
2023-05-29T11:10:17.213Z,46.15
2023-05-29T11:11:17.253Z,45.25
2023-05-29T11:12:17.206Z,45.15
2023-05-29T11:13:17.286Z,45.25
2023-05-29T11:14:17.169Z,44.95
2023-05-29T11:15:17.185Z,45.05
2023-05-29T11:16:17.216Z,45.17
2023-05-29T11:17:17.147Z,45.77
2023-05-29T11:18:17.289Z,46.17
2023-05-29T11:19:17.230Z,45.67
2023-05-29T11:20:18.068Z,44.67
2023-05-29T11:21:17.168Z,45.07
2023-05-29T11:22:17.103Z,44.78
2023-05-29T11:23:17.646Z,44.55
2023-05-29T11:24:17.126Z,44.65
2023-05-29T11:25:17.054Z,43.95
2023-05-29T11:26:17.734Z,44.35
2023-05-29T11:27:18.045Z,45.15
2023-05-29T11:28:17.015Z,45.35
2023-05-29T11:29:17.020Z,45.65
2023-05-29T11:30:17.104Z,45.45
2023-05-29T11:31:17.240Z,45.05
2023-05-29T11:32:16.980Z,44.95
2023-05-29T11:33:16.956Z,44.35
2023-05-29T11:34:16.952Z,44.35
2023-05-29T11:35:16.942Z,43.05
2023-05-29T11:36:17.723Z,42.85
2023-05-29T11:37:17.052Z,43.37
2023-05-29T11:38:16.907Z,42.77
2023-05-29T11:39:16.945Z,43.67
2023-05-29T11:40:16.937Z,43.57
2023-05-29T11:41:16.961Z,43.98
2023-05-29T11:42:16.860Z,43.48
2023-05-29T11:43:18.539Z,43.25
2023-05-29T11:44:16.847Z,42.95
2023-05-29T11:45:16.833Z,43.55
2023-05-29T11:46:16.834Z,43.25
2023-05-29T11:47:16.883Z,43.55
2023-05-29T11:48:16.980Z,43.85
2023-05-29T11:49:16.797Z,43.23
2023-05-29T11:50:16.772Z,43.33
2023-05-29T11:51:17.185Z,42.73
2023-05-29T11:52:17.489Z,42.33
2023-05-29T11:53:17.683Z,42.81
2023-05-29T11:54:16.753Z,43.21
2023-05-29T11:55:16.748Z,43.21
2023-05-29T11:56:16.750Z,42.91
2023-05-29T11:57:16.715Z,43.43
2023-05-29T11:58:16.698Z,43.63
2023-05-29T11:59:16.949Z,43.33
2023-05-29T12:00:16.701Z,43.65
2023-05-29T12:01:17.210Z,43.65
2023-05-29T12:02:16.674Z,44.35
2023-05-29T12:03:17.671Z,43.53
2023-05-29T12:04:16.655Z,43.43
2023-05-29T12:05:16.661Z,43.63
2023-05-29T12:06:16.657Z,43.41
2023-05-29T12:07:16.599Z,43.61
2023-05-29T12:08:16.636Z,42.71
2023-05-29T12:09:16.587Z,42.02
2023-05-29T12:10:16.596Z,41.61
2023-05-29T12:11:16.533Z,41.91
2023-05-29T12:12:16.581Z,42.32
2023-05-29T12:13:16.574Z,42.11
2023-05-29T12:14:16.592Z,42.81
2023-05-29T12:15:16.534Z,43.21
2023-05-29T12:16:16.559Z,43.11
2023-05-29T12:17:16.650Z,43.51
2023-05-29T12:18:16.512Z,43.31
2023-05-29T12:19:16.470Z,43.21
2023-05-29T12:20:16.555Z,42.61
2023-05-29T12:21:16.469Z,42.51
2023-05-29T12:22:16.419Z,42.79
2023-05-29T12:23:16.454Z,42.69
2023-05-29T12:24:16.411Z,43.09
2023-05-29T12:25:16.396Z,43.89
2023-05-29T12:26:16.380Z,43.69
2023-05-29T12:27:16.408Z,43.99
2023-05-29T12:28:17.284Z,44.19
2023-05-29T12:29:16.372Z,44.09
2023-05-29T12:30:24.141Z,44.49
2023-05-29T12:31:16.383Z,44.79
2023-05-29T12:32:17.224Z,44.19
2023-05-29T12:33:16.403Z,43.09
2023-05-29T12:34:16.301Z,43.39
2023-05-29T12:35:16.280Z,42.99
2023-05-29T12:36:16.260Z,43.59
2023-05-29T12:37:16.317Z,43.89
2023-05-29T12:38:16.298Z,44.49
2023-05-29T12:39:16.263Z,43.69
2023-05-29T12:40:16.251Z,44.09
2023-05-29T12:41:16.210Z,43.91
2023-05-29T12:42:16.216Z,43.61
2023-05-29T12:43:16.219Z,44.13
2023-05-29T12:44:16.177Z,44.03
2023-05-29T12:45:17.160Z,42.73
2023-05-29T12:46:16.177Z,42.81
2023-05-29T12:47:16.163Z,42.61
2023-05-29T12:48:16.134Z,43.11
2023-05-29T12:49:16.206Z,43.31
2023-05-29T12:50:16.134Z,43.21
2023-05-29T12:51:16.111Z,43.01
2023-05-29T12:52:16.123Z,42.21